EYKA/KUN METAR and TAF weather

Enter ICAO airport designator
Station Type Date Time Source
EYKA METAR 2021/03/01 22:20 UTC NOAA

EYKA 012220Z AUTO 28009KT 250V310 9999 OVC008/// 02/00 Q1026


Station Type Date Time Source
EYKA Decoded METAR 2021/03/01 22:20 UTC NOAA

Kaunas, Lithuania (EYKA) 54-54N 023-55-12E
Mar 01, 2021 - 05:20 PM EST / 2021.03.01 2220 UTC
Wind: from the W (280 degrees) at 10 MPH (9 KT) (direction variable):0
Visibility: greater than 7 mile(s):0
Sky conditions: overcast
Temperature: 35 F (2 C)
Windchill: 26 F (-3 C):1
Dew Point: 32 F (0 C)
Relative Humidity: 86%
Pressure (altimeter): 30.30 in. Hg (1026 hPa)
ob: EYKA 012220Z AUTO 28009KT 250V310 9999 OVC008/// 02/00 Q1026
cycle: 22

Station Type Date Time Source
EYKA TAF 2021/03/01 19:33 UTC NOAA

TAF TAF COR EYKA 011928Z 0119/0218 26012KT 5000 BR OVC010
TEMPO 0119/0121 OVC015
TEMPO 0121/0124 3000 OVC005
FM020000 1500 OVC005
TEMPO 0200/0209 0500 FG VV002
BECMG 0209/0210 5000 OVC010
BECMG 0213/0214 9000 NSW NSC

Example: see airport list